Time;durP1;ratioP1;P1;durP2;ratioP2;P2;SDS_P1;SDS_P2;PMS_P1;PMS_P2;Temp;Humidity;BMP_temperature;BMP_pressure;BME280_temperature;BME280_humidity;BME280_pressure;Samples;Min_cycle;Max_cycle;Signal;HPM_P1;HPM_P2
2021/12/17 00:00:01;;;;;;;87.45;37.67;;;;;;;7.21;100.00;103158.50;836973;23;1308;-87
2021/12/17 00:00:23;;;;;;;86.10;37.58;;;;;;;7.19;100.00;103147.13;834312;23;998;-87
2021/12/17 00:00:56;;;;;;;86.38;37.63;;;;;;;7.19;100.00;103141.06;836551;23;4233;-87
2021/12/17 00:01:17;;;;;;;83.65;37.22;;;;;;;7.19;100.00;103146.25;828831;23;1453;-87
2021/12/17 00:03:20;;;;;;;92.85;38.30;;;;;;;7.19;100.00;103130.66;840166;23;1302;-87
2021/12/17 00:03:51;;;;;;;85.28;37.58;;;;;;;7.20;100.00;103132.41;838914;23;4254;-88
2021/12/17 00:04:26;;;;;;;84.50;37.40;;;;;;;7.17;100.00;103159.16;839101;23;1193;-87
2021/12/17 00:04:57;;;;;;;87.75;37.72;;;;;;;7.18;100.00;103128.84;837468;23;1292;-87
2021/12/17 00:05:42;;;;;;;90.50;37.97;;;;;;;7.18;100.00;103160.06;837755;23;1351;-87
2021/12/17 00:06:16;;;;;;;89.03;37.55;;;;;;;7.17;100.00;103138.34;841689;23;1243;-87
2021/12/17 00:06:47;;;;;;;83.65;35.10;;;;;;;7.19;100.00;103135.84;836085;23;4240;-87
2021/12/17 00:07:14;;;;;;;76.72;34.45;;;;;;;7.18;100.00;103155.75;837594;23;1298;-87
2021/12/17 00:07:37;;;;;;;83.05;35.85;;;;;;;7.19;100.00;103133.25;835985;23;812;-87
2021/12/17 00:07:58;;;;;;;77.13;35.10;;;;;;;7.16;100.00;103158.28;843646;23;1386;-87
2021/12/17 00:08:21;;;;;;;70.47;32.95;;;;;;;7.18;100.00;103131.47;846846;23;954;-88
2021/12/17 00:08:55;;;;;;;74.18;33.45;;;;;;;7.16;100.00;103153.06;841570;23;1323;-87
2021/12/17 00:09:16;;;;;;;88.75;37.80;;;;;;;7.19;100.00;103161.88;840283;23;1196;-87
2021/12/17 00:09:38;;;;;;;89.05;38.45;;;;;;;7.18;100.00;103144.47;840900;23;4278;-87
2021/12/17 00:10:09;;;;;;;90.35;38.33;;;;;;;7.18;100.00;103145.34;845468;23;1165;-87
2021/12/17 00:10:30;;;;;;;84.60;36.65;;;;;;;7.18;100.00;103136.66;846984;23;831;-87
2021/12/17 00:10:51;;;;;;;88.13;37.37;;;;;;;7.16;100.00;103134.00;838097;23;1208;-87
2021/12/17 00:11:14;;;;;;;88.90;36.75;;;;;;;7.15;100.00;103168.63;837609;23;1622;-87
2021/12/17 00:11:38;;;;;;;88.50;37.47;;;;;;;7.15;100.00;103137.41;841409;23;1389;-87
2021/12/17 00:12:10;;;;;;;85.95;37.10;;;;;;;7.13;100.00;103132.13;845177;23;1227;-87
2021/12/17 00:12:39;;;;;;;84.72;37.03;;;;;;;7.14;100.00;103159.94;837101;23;4396;-87
2021/12/17 00:13:03;;;;;;;93.32;38.58;;;;;;;7.13;100.00;103152.94;825600;23;1281;-87
2021/12/17 00:13:24;;;;;;;91.75;38.25;;;;;;;7.14;100.00;103125.19;841395;23;1220;-88
2021/12/17 00:13:46;;;;;;;89.55;37.25;;;;;;;7.15;100.00;103137.41;838432;23;1147;-87
2021/12/17 00:14:07;;;;;;;86.50;37.03;;;;;;;7.13;100.00;103132.13;841966;23;1279;-87
2021/12/17 00:14:35;;;;;;;90.38;37.72;;;;;;;7.14;100.00;103148.59;835870;23;1236;-87
2021/12/17 00:14:59;;;;;;;86.82;36.97;;;;;;;7.16;100.00;103157.41;836967;23;1139;-87
2021/12/17 00:15:23;;;;;;;84.15;35.72;;;;;;;7.15;100.00;103135.69;833167;23;1378;-87
2021/12/17 00:15:44;;;;;;;78.28;34.53;;;;;;;7.15;100.00;103155.59;832299;23;4398;-87
2021/12/17 00:16:20;;;;;;;81.88;34.35;;;;;;;7.15;100.00;103155.59;841187;23;1279;-87
2021/12/17 00:16:43;;;;;;;83.13;36.25;;;;;;;7.18;100.00;103137.53;844359;23;1251;-87
2021/12/17 00:17:09;;;;;;;84.43;36.13;;;;;;;7.17;100.00;103148.75;841866;23;1478;-87
2021/12/17 00:17:35;;;;;;;84.75;36.92;;;;;;;7.16;100.00;103142.66;843074;23;849;-87
2021/12/17 00:18:02;;;;;;;79.63;36.53;;;;;;;7.18;100.00;103145.34;841930;23;1457;-87
2021/12/17 00:18:36;;;;;;;83.70;36.90;;;;;;;7.18;100.00;103149.66;833265;23;1373;-87
2021/12/17 00:19:42;;;;;;;77.82;36.75;;;;;;;7.18;100.00;103129.72;834108;23;1354;-87
2021/12/17 00:20:35;;;;;;;85.00;36.65;;;;;;;7.21;100.00;103126.41;836439;23;1408;-87
2021/12/17 00:40:21;;;;;;;77.68;36.00;;;;;;;7.21;100.00;103153.28;840512;23;1315;-87
2021/12/17 00:48:22;;;;;;;90.85;37.47;;;;;;;7.20;100.00;103127.19;846959;23;835;-87
2021/12/17 00:48:23;;;;;;;68.38;33.17;;;;;;;7.15;100.00;103143.47;842928;23;855;-87
2021/12/17 00:48:37;;;;;;;64.53;32.20;;;;;;;7.16;100.00;103115.78;840642;23;1268;-87
2021/12/17 00:49:28;;;;;;;66.38;31.85;;;;;;;7.14;100.00;103126.13;841310;23;5043;-87
2021/12/17 00:51:49;;;;;;;81.30;36.70;;;;;;;7.15;100.00;103132.19;835902;23;1255;-87
2021/12/17 00:52:16;;;;;;;91.18;37.47;;;;;;;7.15;100.00;103140.00;837185;23;1263;-87
2021/12/17 00:52:40;;;;;;;93.15;38.20;;;;;;;7.17;100.00;103159.16;828856;23;1338;-87
2021/12/17 00:53:00;;;;;;;92.72;38.15;;;;;;;7.16;100.00;103136.59;824343;23;1385;-87
2021/12/17 00:53:26;;;;;;;93.45;38.10;;;;;;;7.16;100.00;103142.66;824818;23;1285;-87
2021/12/17 00:53:49;;;;;;;85.50;37.30;;;;;;;7.16;100.00;103134.88;840868;23;1341;-87
2021/12/17 00:54:21;;;;;;;81.28;36.25;;;;;;;7.15;100.00;103146.06;837565;23;1319;-87
2021/12/17 00:54:46;;;;;;;87.10;36.97;;;;;;;7.16;100.00;103120.97;837182;23;4371;-87
2021/12/17 00:55:08;;;;;;;87.50;37.38;;;;;;;7.16;100.00;103137.47;837920;23;1183;-87
2021/12/17 00:55:29;;;;;;;83.10;36.53;;;;;;;7.17;100.00;103153.97;837289;23;1500;-87
2021/12/17 00:55:50;;;;;;;83.93;37.33;;;;;;;7.15;100.00;103114.88;832833;23;1337;-86
2021/12/17 00:56:11;;;;;;;89.70;38.28;;;;;;;7.17;100.00;103143.56;837151;23;1288;-87
2021/12/17 00:56:31;;;;;;;90.40;37.92;;;;;;;7.16;100.00;103119.25;836092;23;1163;-87
2021/12/17 00:56:55;;;;;;;95.93;38.67;;;;;;;7.18;100.00;103123.66;832391;23;1252;-87
2021/12/17 00:57:19;;;;;;;88.47;37.97;;;;;;;7.16;100.00;103116.66;833380;23;1950;-87
2021/12/17 00:57:42;;;;;;;90.05;39.72;;;;;;;7.17;100.00;103112.34;836746;23;4344;-88
2021/12/17 00:58:15;;;;;;;95.00;39.90;;;;;;;7.16;100.00;103116.66;836022;23;1327;-87
2021/12/17 00:58:39;;;;;;;94.60;39.17;;;;;;;7.15;100.00;103127.00;839891;23;1390;-87
2021/12/17 00:58:59;;;;;;;90.38;38.70;;;;;;;7.18;100.00;103113.25;843016;23;1311;-87
2021/12/17 00:59:29;;;;;;;95.95;38.58;;;;;;;7.18;100.00;103150.53;833226;23;1259;-87
2021/12/17 00:59:53;;;;;;;91.30;38.20;;;;;;;7.16;100.00;103136.59;837386;23;1441;-87
2021/12/17 01:00:20;;;;;;;85.07;36.28;;;;;;;7.14;100.00;103131.31;833978;23;1525;-87
2021/12/17 01:00:44;;;;;;;85.55;35.60;;;;;;;7.14;100.00;103133.91;832671;23;4259;-87
2021/12/17 01:01:05;;;;;;;88.13;36.70;;;;;;;7.13;100.00;103124.31;842314;23;1242;-87
2021/12/17 01:01:28;;;;;;;88.28;38.13;;;;;;;7.12;100.00;103114.72;841717;23;1214;-87
2021/12/17 01:01:53;;;;;;;89.78;38.33;;;;;;;7.12;100.00;103119.03;837090;23;1399;-87
2021/12/17 01:02:29;;;;;;;87.88;37.88;;;;;;;7.14;100.00;103105.31;836418;23;1308;-87
2021/12/17 01:02:53;;;;;;;89.72;38.08;;;;;;;7.12;100.00;103099.13;834272;23;1525;-87
2021/12/17 01:03:22;;;;;;;84.53;36.80;;;;;;;7.13;100.00;103121.72;828637;23;4637;-87
2021/12/17 01:03:44;;;;;;;82.88;35.95;;;;;;;7.13;100.00;103097.38;829266;23;4719;-87
2021/12/17 01:04:11;;;;;;;87.93;37.60;;;;;;;7.15;100.00;103099.25;836657;23;1252;-87
2021/12/17 01:04:41;;;;;;;94.53;38.80;;;;;;;7.15;100.00;103100.97;832179;23;1355;-87
2021/12/17 01:05:17;;;;;;;89.22;37.85;;;;;;;7.15;100.00;103095.78;829196;23;1221;-87
2021/12/17 01:05:40;;;;;;;81.35;36.45;;;;;;;7.14;100.00;103118.31;830180;23;1359;-87
2021/12/17 01:06:03;;;;;;;85.45;36.65;;;;;;;7.16;100.00;103108.84;841325;23;924;-87
2021/12/17 01:06:25;;;;;;;83.28;35.80;;;;;;;7.14;100.00;103102.69;840260;23;1336;-87
2021/12/17 01:06:46;;;;;;;86.38;37.83;;;;;;;7.13;100.00;103119.13;832159;23;4242;-87
2021/12/17 01:07:10;;;;;;;84.32;36.60;;;;;;;7.13;100.00;103111.31;828789;23;1284;-87
2021/12/17 01:07:35;;;;;;;83.70;35.63;;;;;;;7.13;100.00;103126.91;828624;23;1398;-87
2021/12/17 01:08:06;;;;;;;84.95;36.22;;;;;;;7.13;100.00;103142.53;833708;23;1283;-87
2021/12/17 01:08:30;;;;;;;88.10;37.25;;;;;;;7.12;100.00;103106.91;832843;23;1310;-87
2021/12/17 01:08:51;;;;;;;85.53;37.53;;;;;;;7.12;100.00;103119.03;833452;23;1377;-87
2021/12/17 01:09:21;;;;;;;82.25;36.08;;;;;;;7.11;100.00;103115.53;837202;23;4549;-87
2021/12/17 01:09:48;;;;;;;82.65;35.85;;;;;;;7.12;100.00;103099.13;831692;23;4701;-87
2021/12/17 01:10:21;;;;;;;86.43;35.53;;;;;;;7.10;100.00;103112.84;830017;23;5189;-87
2021/12/17 01:10:56;;;;;;;90.47;37.40;;;;;;;7.10;100.00;103124.19;829328;23;1320;-87
2021/12/17 01:11:36;;;;;;;87.90;37.35;;;;;;;7.08;100.00;103094.59;835718;23;1251;-87
2021/12/17 01:12:17;;;;;;;82.45;35.88;;;;;;;7.08;100.00;103094.59;841137;23;656;-87
2021/12/17 01:13:00;;;;;;;84.13;35.53;;;;;;;7.09;100.00;103109.38;840135;23;9370;-87
2021/12/17 01:13:46;;;;;;;73.40;33.10;;;;;;;7.11;100.00;103096.44;836965;23;5118;-87
2021/12/17 01:14:40;;;;;;;70.05;31.88;;;;;;;7.12;100.00;103103.44;840917;23;4846;-87
2021/12/17 01:15:24;;;;;;;71.40;32.67;;;;;;;7.09;100.00;103109.38;836918;23;5214;-87
2021/12/17 01:16:11;;;;;;;80.18;35.80;;;;;;;7.12;100.00;103087.81;841340;23;4952;-87
2021/12/17 01:16:47;;;;;;;80.10;35.20;;;;;;;7.12;100.00;103087.81;833081;23;1434;-87
2021/12/17 01:17:23;;;;;;;85.43;36.20;;;;;;;7.10;100.00;103079.97;833057;23;1946;-87
2021/12/17 01:17:56;;;;;;;88.75;37.53;;;;;;;7.09;100.00;103080.75;833397;23;5081;-88
2021/12/17 01:18:39;;;;;;;90.22;37.05;;;;;;;7.11;100.00;103081.72;837060;23;5368;-87
2021/12/17 01:20:07;;;;;;;82.53;36.28;;;;;;;7.08;100.00;103097.19;833893;23;5444;-87
2021/12/17 01:20:31;;;;;;;82.45;36.20;;;;;;;7.08;100.00;103084.19;834280;23;1232;-88
2021/12/17 01:24:10;;;;;;;76.22;33.97;;;;;;;7.08;100.00;103081.56;839878;23;1115;-87
2021/12/17 01:25:06;;;;;;;79.50;35.47;;;;;;;7.09;100.00;103080.75;826956;23;4724;-88
2021/12/17 01:35:28;;;;;;;92.18;35.60;;;;;;;7.09;100.00;103101.56;826694;23;1246;-87
2021/12/17 01:35:55;;;;;;;71.72;31.45;;;;;;;7.12;100.00;103086.09;827621;23;1464;-87
2021/12/17 01:36:25;;;;;;;76.60;33.13;;;;;;;7.13;100.00;103084.38;829696;23;1587;-87
2021/12/17 01:37:04;;;;;;;79.70;35.35;;;;;;;7.10;100.00;103103.38;824431;23;4285;-87
2021/12/17 01:42:05;;;;;;;83.53;36.45;;;;;;;7.09;100.00;103093.78;843873;23;875;-87
2021/12/17 01:42:27;;;;;;;81.55;35.63;;;;;;;7.09;100.00;103088.56;837436;23;1387;-87
2021/12/17 01:42:56;;;;;;;78.57;36.25;;;;;;;7.11;100.00;103096.44;834808;23;4755;-87
2021/12/17 01:43:18;;;;;;;79.78;35.55;;;;;;;7.10;100.00;103099.84;833125;23;1253;-87
2021/12/17 01:43:59;;;;;;;;;;;;;;;;;;;;;
2021/12/17 01:44:20;;;;;;;84.00;36.08;;;;;;;7.10;100.00;103126.78;837455;23;1261;-88
2021/12/17 01:44:42;;;;;;;83.32;35.05;;;;;;;7.08;100.00;103091.97;837075;23;1268;-87
2021/12/17 01:45:04;;;;;;;77.22;34.97;;;;;;;7.08;100.00;103107.59;833320;23;1211;-88
2021/12/17 01:45:31;;;;;;;83.72;35.90;;;;;;;7.08;100.00;103088.50;831942;23;5536;-88
2021/12/17 01:45:57;;;;;;;83.53;36.05;;;;;;;7.08;100.00;103089.38;831858;23;4653;-87
2021/12/17 01:46:31;;;;;;;82.53;35.25;;;;;;;7.08;100.00;103091.09;837011;23;5338;-88
2021/12/17 01:46:57;;;;;;;81.05;35.63;;;;;;;7.07;100.00;103121.41;834462;23;1258;-88
2021/12/17 01:47:17;;;;;;;83.03;36.38;;;;;;;7.07;100.00;103089.31;834118;23;1293;-88
2021/12/17 01:47:38;;;;;;;88.68;36.70;;;;;;;7.07;100.00;103105.78;832936;23;1256;-88
2021/12/17 01:48:02;;;;;;;87.80;35.97;;;;;;;7.08;100.00;103097.19;833321;23;1337;-88
2021/12/17 01:48:32;;;;;;;88.22;34.63;;;;;;;7.08;100.00;103101.50;835922;23;5485;-88
2021/12/17 01:56:55;;;;;;;80.95;35.17;;;;;;;7.08;100.00;103107.59;845753;23;1366;-88
2021/12/17 01:56:59;;;;;;;80.18;34.13;;;;;;;7.08;100.00;103145.72;829069;23;1369;-87
2021/12/17 01:59:38;;;;;;;67.10;32.50;;;;;;;7.09;100.00;103104.19;841204;23;5155;-87
2021/12/17 02:00:22;;;;;;;78.28;33.83;;;;;;;7.11;100.00;103106.84;839644;23;1268;-87
2021/12/17 02:00:51;;;;;;;83.50;35.05;;;;;;;7.09;100.00;103116.25;833167;23;4233;-87
2021/12/17 02:01:12;;;;;;;79.35;33.85;;;;;;;7.10;100.00;103134.59;833614;23;5278;-87
2021/12/17 02:01:36;;;;;;;79.30;34.05;;;;;;;7.09;100.00;103119.78;828654;23;5261;-87
2021/12/17 02:02:04;;;;;;;82.72;34.08;;;;;;;7.10;100.00;103124.19;828320;23;1249;-87
2021/12/17 02:02:39;;;;;;;;;;;;;;;;;;;;;
2021/12/17 02:03:10;;;;;;;80.00;34.28;;;;;;;7.09;100.00;103139.69;837105;23;4912;-87
2021/12/17 02:03:31;;;;;;;75.80;32.42;;;;;;;7.11;100.00;103112.06;836764;23;5133;-87
2021/12/17 02:03:51;;;;;;;75.50;33.28;;;;;;;7.08;100.00;103128.41;825588;23;4403;-87
2021/12/17 02:04:12;;;;;;;76.03;33.67;;;;;;;7.07;100.00;103126.59;837720;23;1224;-87
2021/12/17 02:04:37;;;;;;;79.55;34.10;;;;;;;7.08;100.00;103141.41;834144;23;1293;-87
2021/12/17 02:04:58;;;;;;;78.43;33.65;;;;;;;7.08;100.00;103130.13;839082;23;5330;-87
2021/12/17 02:05:19;;;;;;;72.32;32.40;;;;;;;7.08;100.00;103122.31;836988;23;1442;-87
2021/12/17 02:05:40;;;;;;;70.37;31.67;;;;;;;7.09;100.00;103137.06;832964;23;1261;-87
2021/12/17 02:06:03;;;;;;;61.20;29.98;;;;;;;7.11;100.00;103112.06;836341;23;1384;-87
2021/12/17 02:06:29;;;;;;;66.18;30.70;;;;;;;7.10;100.00;103113.78;836752;23;5030;-87
2021/12/17 02:06:49;;;;;;;58.17;29.65;;;;;;;7.10;100.00;103107.66;831446;23;7784;-87
2021/12/17 02:07:15;;;;;;;60.33;29.58;;;;;;;7.10;100.00;103105.97;840766;23;1408;-87
2021/12/17 02:07:39;;;;;;;64.05;30.52;;;;;;;7.12;100.00;103132.06;837658;23;4602;-87
2021/12/17 02:08:12;;;;;;;66.38;31.13;;;;;;;7.10;100.00;103136.28;836808;23;5158;-87
2021/12/17 02:08:36;;;;;;;69.70;32.72;;;;;;;7.11;100.00;103093.84;832445;23;4685;-87
2021/12/17 02:08:59;;;;;;;72.60;33.00;;;;;;;7.09;100.00;103098.97;829098;23;6319;-87
2021/12/17 02:10:19;;;;;;;78.15;34.25;;;;;;;7.11;100.00;103120.72;836457;23;5168;-87
2021/12/17 02:12:17;;;;;;;68.45;32.13;;;;;;;7.11;100.00;103118.13;836971;23;1300;-87
2021/12/17 02:21:02;;;;;;;76.32;34.05;;;;;;;7.11;100.00;103102.53;837818;23;5200;-87
2021/12/17 02:28:44;;;;;;;56.55;28.40;;;;;;;7.12;100.00;103139.84;842249;23;4927;-87
2021/12/17 02:31:03;;;;;;;67.30;31.52;;;;;;;7.14;100.00;103126.13;846477;23;4350;-87
2021/12/17 02:31:37;;;;;;;64.40;31.58;;;;;;;7.16;100.00;103113.19;839630;23;1315;-87
2021/12/17 02:32:02;;;;;;;64.10;31.42;;;;;;;7.14;100.00;103120.91;841272;23;1390;-87
2021/12/17 02:32:33;;;;;;;65.47;32.30;;;;;;;7.15;100.00;103114.88;828971;23;1305;-87
2021/12/17 02:32:56;;;;;;;64.57;32.10;;;;;;;7.18;100.00;103110.66;830972;23;1236;-87
2021/12/17 02:33:28;;;;;;;65.05;31.00;;;;;;;7.16;100.00;103103.66;834661;23;919;-87
2021/12/17 02:33:50;;;;;;;61.92;30.55;;;;;;;7.18;100.00;103128.84;836718;23;4388;-87
2021/12/17 02:34:32;;;;;;;61.85;30.45;;;;;;;7.16;100.00;103111.44;833383;23;1490;-87
2021/12/17 02:35:12;;;;;;;64.25;31.90;;;;;;;7.18;100.00;103127.13;832877;23;1363;-87
2021/12/17 02:35:47;;;;;;;64.00;31.58;;;;;;;7.20;100.00;103109.00;838539;23;1264;-87
2021/12/17 02:36:17;;;;;;;64.75;31.15;;;;;;;7.18;100.00;103128.84;836679;23;1148;-86
2021/12/17 02:36:44;;;;;;;60.05;30.27;;;;;;;7.20;100.00;103129.81;836769;23;4685;-87
2021/12/17 02:37:13;;;;;;;67.20;32.22;;;;;;;7.20;100.00;103140.22;834276;23;4844;-88
2021/12/17 02:37:53;;;;;;;65.75;31.42;;;;;;;7.19;100.00;103117.63;830252;23;676;-87
2021/12/17 02:38:39;;;;;;;67.80;31.80;;;;;;;7.19;100.00;103128.94;837462;23;4964;-87
2021/12/17 02:39:46;;;;;;;69.03;32.58;;;;;;;7.20;100.00;103106.38;837885;23;1243;-87
2021/12/17 02:45:33;;;;;;;67.72;32.22;;;;;;;7.16;100.00;103131.38;844644;23;1480;-87
2021/12/17 02:45:54;;;;;;;66.70;31.55;;;;;;;7.16;100.00;103144.41;836038;23;4854;-87
2021/12/17 02:46:15;;;;;;;71.55;32.65;;;;;;;7.17;100.00;103109.72;839466;23;1536;-87
2021/12/17 02:46:36;;;;;;;69.05;32.40;;;;;;;7.15;100.00;103124.38;837159;23;1341;-86
2021/12/17 02:46:59;;;;;;;69.85;32.70;;;;;;;7.16;100.00;103106.25;841853;23;1484;-87
2021/12/17 02:47:21;;;;;;;70.20;32.55;;;;;;;7.15;100.00;103127.88;832169;23;13788;-87
2021/12/17 02:47:42;;;;;;;66.18;31.95;;;;;;;7.17;100.00;103109.72;840900;23;1323;-87
2021/12/17 02:48:06;;;;;;;68.90;32.23;;;;;;;7.15;100.00;103127.88;837215;23;1283;-87
2021/12/17 02:48:31;;;;;;;72.05;32.90;;;;;;;7.16;100.00;103116.66;832718;23;4922;-87
2021/12/17 02:48:53;;;;;;;71.53;33.30;;;;;;;7.16;100.00;103105.38;837518;23;4925;-86
2021/12/17 02:49:14;;;;;;;68.95;32.10;;;;;;;7.17;100.00;103148.75;833393;23;1355;-87
2021/12/17 02:49:42;;;;;;;56.20;28.40;;;;;;;7.17;100.00;103138.34;833119;23;5337;-87
2021/12/17 02:50:05;;;;;;;52.50;26.50;;;;;;;7.14;100.00;103110.50;832732;23;5481;-86
2021/12/17 02:50:28;;;;;;;52.30;26.50;;;;;;;7.14;100.00;103120.91;833532;23;1546;-87
2021/12/17 02:50:55;;;;;;;54.67;27.75;;;;;;;7.16;100.00;103141.78;833136;23;6321;-86
2021/12/17 02:51:16;;;;;;;65.18;30.88;;;;;;;7.16;100.00;103115.78;832177;23;5073;-86
2021/12/17 02:51:37;;;;;;;66.38;30.98;;;;;;;7.15;100.00;103122.66;835294;23;4460;-86
2021/12/17 02:52:03;;;;;;;66.80;31.05;;;;;;;7.15;100.00;103108.78;833540;23;1346;-87
2021/12/17 02:52:29;;;;;;;64.05;31.35;;;;;;;7.16;100.00;103105.38;832990;23;4842;-87
2021/12/17 02:52:50;;;;;;;62.67;31.98;;;;;;;7.17;100.00;103109.72;836581;23;5573;-87
2021/12/17 02:53:12;;;;;;;64.93;32.28;;;;;;;7.17;100.00;103109.72;840026;23;1216;-86
2021/12/17 02:53:33;;;;;;;67.03;32.25;;;;;;;7.17;100.00;103125.34;840337;23;1417;-86
2021/12/17 02:54:01;;;;;;;65.03;32.37;;;;;;;7.16;100.00;103106.25;837493;23;1077;-86
2021/12/17 02:54:26;;;;;;;69.55;33.45;;;;;;;7.16;100.00;103114.06;837174;23;5283;-87
2021/12/17 02:54:49;;;;;;;67.97;33.47;;;;;;;7.16;100.00;103128.78;840004;23;5198;-86
2021/12/17 02:55:20;;;;;;;72.70;33.40;;;;;;;7.17;100.00;103117.53;843339;23;865;-87
2021/12/17 02:55:49;;;;;;;71.25;34.22;;;;;;;7.18;100.00;103115.84;838103;23;5651;-86
2021/12/17 02:56:10;;;;;;;72.07;33.40;;;;;;;7.18;100.00;103131.47;837548;23;5118;-87
2021/12/17 02:57:17;;;;;;;72.22;34.25;;;;;;;7.18;100.00;103108.03;837205;23;1971;-86
2021/12/17 02:57:41;;;;;;;72.53;33.85;;;;;;;7.19;100.00;103148.84;832419;23;4309;-87
2021/12/17 02:58:07;;;;;;;69.72;33.15;;;;;;;7.16;100.00;103120.97;829969;23;5584;-87
2021/12/17 02:58:31;;;;;;;74.04;33.74;;;;;;;7.18;100.00;103105.44;832289;23;4852;-87
2021/12/17 02:58:53;;;;;;;74.05;34.33;;;;;;;7.18;100.00;103119.31;841216;23;5271;-87
2021/12/17 02:59:17;;;;;;;72.90;33.13;;;;;;;7.18;100.00;103128.84;841707;23;1322;-86
2021/12/17 02:59:39;;;;;;;72.57;33.10;;;;;;;7.18;100.00;103121.06;837245;23;5286;-87
2021/12/17 03:00:05;;;;;;;73.78;33.95;;;;;;;7.16;100.00;103119.25;840369;23;1507;-87
2021/12/17 03:00:29;;;;;;;70.65;33.72;;;;;;;7.16;100.00;103128.78;836681;23;4907;-86
2021/12/17 03:00:51;;;;;;;75.32;33.90;;;;;;;7.18;100.00;103108.91;835982;23;5063;-87
2021/12/17 03:01:19;;;;;;;76.25;33.95;;;;;;;7.18;100.00;103100.25;837480;23;1241;-86
2021/12/17 03:01:44;;;;;;;75.47;34.03;;;;;;;7.17;100.00;103101.94;834650;23;1263;-86
2021/12/17 03:02:08;;;;;;;77.88;33.20;;;;;;;7.16;100.00;103108.84;833151;23;5105;-86
2021/12/17 03:02:31;;;;;;;75.45;33.22;;;;;;;7.15;100.00;103117.47;834172;23;5498;-86
2021/12/17 03:02:56;;;;;;;75.00;33.70;;;;;;;7.15;100.00;103113.97;832402;23;1116;-86
2021/12/17 03:03:30;;;;;;;71.65;32.42;;;;;;;7.17;100.00;103101.94;833229;23;1487;-87
2021/12/17 03:03:59;;;;;;;66.88;31.38;;;;;;;7.14;100.00;103115.72;827737;23;4339;-87
2021/12/17 03:04:21;;;;;;;66.05;32.03;;;;;;;7.14;100.00;103112.19;834719;23;1296;-87
2021/12/17 03:04:45;;;;;;;66.00;32.53;;;;;;;7.16;100.00;103128.78;838519;23;989;-87
2021/12/17 03:05:08;;;;;;;69.50;33.15;;;;;;;7.18;100.00;103128.84;834704;23;816;-87
2021/12/17 03:05:29;;;;;;;72.82;33.30;;;;;;;7.14;100.00;103094.91;836929;23;4702;-86
2021/12/17 03:05:50;;;;;;;72.28;33.03;;;;;;;7.15;100.00;103099.25;829591;23;1319;-87
2021/12/17 03:06:19;;;;;;;72.15;32.92;;;;;;;7.16;100.00;103097.56;833840;23;1156;-87
2021/12/17 03:06:41;;;;;;;66.20;31.45;;;;;;;7.13;100.00;103116.50;836364;23;4250;-86
2021/12/17 03:07:06;;;;;;;72.88;33.63;;;;;;;7.14;100.00;103101.78;841645;23;1217;-86
2021/12/17 03:07:44;;;;;;;71.90;32.47;;;;;;;7.14;100.00;103105.31;841343;23;4894;-87
2021/12/17 03:08:17;;;;;;;73.63;33.83;;;;;;;7.13;100.00;103110.41;844978;23;1250;-86
2021/12/17 03:08:40;;;;;;;77.15;34.15;;;;;;;7.14;100.00;103096.59;840362;23;1407;-86
2021/12/17 03:09:01;;;;;;;77.63;33.70;;;;;;;7.12;100.00;103109.53;843095;23;938;-86
2021/12/17 03:09:36;;;;;;;75.75;33.88;;;;;;;7.13;100.00;103103.50;837416;23;1450;-86
2021/12/17 03:10:21;;;;;;;72.43;32.63;;;;;;;7.11;100.00;103106.84;832736;23;1213;-86
2021/12/17 03:10:47;;;;;;;73.43;32.50;;;;;;;7.11;100.00;103101.66;833088;23;1241;-86
2021/12/17 03:11:09;;;;;;;73.50;33.60;;;;;;;7.10;100.00;103125.88;832274;23;4772;-86
2021/12/17 03:11:29;;;;;;;71.60;32.83;;;;;;;7.12;100.00;103104.31;834126;23;812;-86
2021/12/17 03:11:53;;;;;;;72.68;32.78;;;;;;;7.12;100.00;103129.44;839145;23;1376;-87
2021/12/17 03:12:30;;;;;;;72.55;33.25;;;;;;;7.09;100.00;103096.38;839268;23;1228;-87
2021/12/17 03:12:57;;;;;;;72.53;33.08;;;;;;;7.11;100.00;103101.66;841696;23;4397;-86
2021/12/17 03:13:21;;;;;;;71.15;32.95;;;;;;;7.09;100.00;103109.38;835301;23;1381;-87
2021/12/17 03:13:49;;;;;;;72.75;32.17;;;;;;;7.11;100.00;103101.66;834859;23;1343;-87
2021/12/17 03:14:13;;;;;;;77.95;33.70;;;;;;;7.10;100.00;103092.06;834898;23;1152;-87
2021/12/17 03:14:46;;;;;;;76.70;34.33;;;;;;;7.11;100.00;103109.44;835210;23;5516;-86
2021/12/17 03:15:42;;;;;;;74.88;33.83;;;;;;;7.11;100.00;103096.44;825839;23;4256;-87
2021/12/17 03:16:22;;;;;;;73.82;33.13;;;;;;;7.10;100.00;103105.97;837074;23;5132;-87
2021/12/17 03:17:02;;;;;;;75.55;33.85;;;;;;;7.10;100.00;103107.66;842080;23;967;-87
2021/12/17 03:23:25;;;;;;;72.57;31.95;;;;;;;7.10;100.00;103090.34;842192;23;1183;-87
2021/12/17 03:24:01;;;;;;;70.57;31.77;;;;;;;7.10;100.00;103115.47;844966;23;1285;-87
2021/12/17 03:24:26;;;;;;;67.00;31.55;;;;;;;7.10;100.00;103098.16;841069;23;1358;-86
2021/12/17 03:24:59;;;;;;;69.40;32.33;;;;;;;7.10;100.00;103099.84;841864;23;4931;-87
2021/12/17 03:25:22;;;;;;;73.07;33.05;;;;;;;7.10;100.00;103099.84;833496;23;5262;-87
2021/12/17 03:25:45;;;;;;;78.93;34.05;;;;;;;7.09;100.00;103104.19;836262;23;5120;-87
2021/12/17 03:26:15;;;;;;;76.63;34.58;;;;;;;7.09;100.00;103117.19;841973;23;823;-86
2021/12/17 03:26:43;;;;;;;74.10;33.17;;;;;;;7.10;100.00;103116.38;833441;23;5423;-87
2021/12/17 03:27:04;;;;;;;73.28;32.80;;;;;;;7.08;100.00;103091.97;832642;23;1320;-87
2021/12/17 03:27:31;;;;;;;69.82;32.08;;;;;;;7.09;100.00;103119.78;837561;23;1427;-87
2021/12/17 03:27:51;;;;;;;74.18;32.92;;;;;;;7.08;100.00;103097.19;837063;23;5356;-87
2021/12/17 03:28:13;;;;;;;77.75;33.33;;;;;;;7.10;100.00;103113.78;839964;23;1223;-87
2021/12/17 03:28:35;;;;;;;75.10;33.10;;;;;;;7.09;100.00;103121.47;837175;23;1192;-87
2021/12/17 03:28:59;;;;;;;70.88;33.05;;;;;;;7.09;100.00;103117.19;837594;23;1258;-87
2021/12/17 03:29:23;;;;;;;71.95;33.58;;;;;;;7.09;100.00;103108.47;836868;23;6714;-87
2021/12/17 03:30:01;;;;;;;73.43;33.47;;;;;;;7.09;100.00;103129.28;836336;23;4700;-87
2021/12/17 03:30:22;;;;;;;76.82;33.20;;;;;;;7.08;100.00;103091.97;832791;23;4723;-88
2021/12/17 03:30:42;;;;;;;73.38;33.25;;;;;;;7.08;100.00;103112.78;832810;23;1348;-88
2021/12/17 03:31:04;;;;;;;72.40;32.33;;;;;;;7.08;100.00;103094.59;837597;23;1402;-88
2021/12/17 03:31:28;;;;;;;69.95;32.63;;;;;;;7.07;100.00;103094.50;836907;23;5217;-88
2021/12/17 03:31:49;;;;;;;71.70;33.03;;;;;;;7.08;100.00;103107.59;836836;23;976;-88
2021/12/17 03:32:10;;;;;;;74.57;33.42;;;;;;;7.07;100.00;103116.19;837510;23;1290;-88
2021/12/17 03:32:30;;;;;;;76.27;32.73;;;;;;;7.09;100.00;103095.47;833665;23;1440;-88
2021/12/17 03:32:51;;;;;;;72.23;32.40;;;;;;;7.07;100.00;103121.41;828714;23;1198;-88
2021/12/17 03:33:12;;;;;;;73.65;32.95;;;;;;;7.07;100.00;103111.00;834060;23;1301;-88
2021/12/17 03:33:34;;;;;;;72.30;32.90;;;;;;;7.07;100.00;103110.13;840955;23;1521;-88
2021/12/17 03:34:06;;;;;;;74.03;33.78;;;;;;;7.07;100.00;103098.00;841289;23;1477;-88
2021/12/17 03:34:27;;;;;;;72.57;33.33;;;;;;;7.09;100.00;103093.78;811615;23;4700;-88
2021/12/17 03:35:00;;;;;;;74.38;33.90;;;;;;;7.09;100.00;103109.38;841765;23;1423;-88
2021/12/17 03:35:21;;;;;;;69.85;33.28;;;;;;;7.08;100.00;103115.38;836969;23;5362;-88
2021/12/17 03:35:45;;;;;;;74.07;33.78;;;;;;;7.08;100.00;103102.38;832778;23;1467;-88
2021/12/17 03:36:19;;;;;;;;;;;;;;;;;;;;;
2021/12/17 03:36:40;;;;;;;71.18;33.30;;;;;;;7.11;100.00;103106.84;840869;23;1290;-88
2021/12/17 03:37:01;;;;;;;70.80;32.50;;;;;;;7.09;100.00;103092.84;833531;23;1310;-88
2021/12/17 03:37:31;;;;;;;74.78;32.97;;;;;;;7.10;100.00;103102.47;825653;23;4409;-88
2021/12/17 03:38:10;;;;;;;;;;;;;;;;;;;;;
2021/12/17 03:38:31;;;;;;;75.25;33.70;;;;;;;7.08;100.00;103084.19;828236;23;1310;-88
2021/12/17 03:38:51;;;;;;;78.43;34.40;;;;;;;7.11;100.00;103092.13;831551;23;836;-88